createdAt,value
2016-06-24T00:00:23.918Z,0
2016-06-24T00:01:23.230Z,0
2016-06-24T00:02:23.181Z,0
2016-06-24T00:03:23.198Z,0
2016-06-24T00:04:23.840Z,0
2016-06-24T00:05:23.157Z,0
2016-06-24T00:06:23.165Z,0
2016-06-24T00:07:23.132Z,0
2016-06-24T00:08:24.464Z,0
2016-06-24T00:09:23.804Z,0
2016-06-24T00:10:24.456Z,0
2016-06-24T00:11:23.068Z,0
2016-06-24T00:12:23.743Z,0
2016-06-24T00:13:24.368Z,0
2016-06-24T00:14:22.983Z,0
2016-06-24T00:15:23.698Z,0
2016-06-24T00:16:24.340Z,0
2016-06-24T00:17:23.647Z,0
2016-06-24T00:18:23.626Z,0
2016-06-24T00:19:22.928Z,0
2016-06-24T00:20:23.576Z,0
2016-06-24T00:21:24.162Z,0
2016-06-24T00:22:23.962Z,0
2016-06-24T00:23:23.167Z,0
2016-06-24T00:24:21.187Z,0
2016-06-24T00:25:23.712Z,0
2016-06-24T00:26:23.150Z,0
2016-06-24T00:27:23.698Z,0
2016-06-24T00:28:23.102Z,0
2016-06-24T00:29:22.403Z,0
2016-06-24T00:30:23.667Z,0
2016-06-24T00:31:23.605Z,0
2016-06-24T00:32:22.946Z,0
2016-06-24T00:33:22.921Z,0
2016-06-24T00:34:22.902Z,0
2016-06-24T00:35:22.254Z,0
2016-06-24T00:36:22.235Z,0
2016-06-24T00:37:23.496Z,0
2016-06-24T00:38:23.502Z,0
2016-06-24T00:39:22.829Z,0
2016-06-24T00:40:22.814Z,0
2016-06-24T00:41:22.818Z,0
2016-06-24T00:42:22.810Z,0
2016-06-24T00:43:22.114Z,0
2016-06-24T00:44:22.754Z,0
2016-06-24T00:45:23.425Z,0
2016-06-24T00:46:21.450Z,0
2016-06-24T00:47:23.361Z,0
2016-06-24T00:48:23.354Z,0
2016-06-24T00:49:22.723Z,0
2016-06-24T00:50:22.675Z,0
2016-06-24T00:51:22.657Z,0
2016-06-24T00:52:22.653Z,0
2016-06-24T00:53:21.354Z,0
2016-06-24T00:54:23.250Z,0
2016-06-24T00:55:23.244Z,0
2016-06-24T00:56:22.573Z,0
2016-06-24T00:57:21.920Z,0
2016-06-24T00:58:21.906Z,0
2016-06-24T00:59:23.190Z,0
2016-06-24T01:00:22.532Z,0
2016-06-24T01:01:23.154Z,0
2016-06-24T01:02:22.506Z,0
2016-06-24T01:03:23.121Z,0
2016-06-24T01:04:22.477Z,0
2016-06-24T01:05:23.093Z,0
2016-06-24T01:06:21.803Z,0
2016-06-24T01:07:21.796Z,0
2016-06-24T01:08:22.414Z,0
2016-06-24T01:09:22.396Z,0
2016-06-24T01:10:21.741Z,0
2016-06-24T01:11:22.360Z,0
2016-06-24T01:12:22.993Z,0
2016-06-24T01:13:23.002Z,0
2016-06-24T01:14:22.965Z,0
2016-06-24T01:15:22.301Z,0
2016-06-24T01:16:22.284Z,0
2016-06-24T01:17:22.286Z,0
2016-06-24T01:18:22.246Z,0
2016-06-24T01:19:22.246Z,0
2016-06-24T01:20:22.229Z,0
2016-06-24T01:21:22.228Z,0
2016-06-24T01:22:22.859Z,0
2016-06-24T01:23:22.180Z,0
2016-06-24T01:24:22.160Z,0
2016-06-24T01:25:21.537Z,0
2016-06-24T01:26:22.779Z,0
2016-06-24T01:27:21.502Z,0
2016-06-24T01:28:22.757Z,0
2016-06-24T01:29:22.116Z,0
2016-06-24T01:30:21.473Z,0
2016-06-24T01:31:21.450Z,0
2016-06-24T01:32:21.422Z,0
2016-06-24T01:33:22.693Z,0
2016-06-24T01:34:22.037Z,0
2016-06-24T01:35:22.003Z,0
2016-06-24T01:36:21.378Z,0
2016-06-24T01:37:22.660Z,0
2016-06-24T01:38:22.634Z,0
2016-06-24T01:39:20.675Z,0
2016-06-24T01:40:21.928Z,0
2016-06-24T01:41:22.568Z,0
2016-06-24T01:42:21.927Z,0
2016-06-24T01:43:22.547Z,0
2016-06-24T01:44:21.886Z,0
2016-06-24T01:45:21.891Z,0
2016-06-24T01:46:22.483Z,0
2016-06-24T01:47:21.857Z,0
2016-06-24T01:48:21.193Z,0
2016-06-24T01:49:21.170Z,0
2016-06-24T01:50:21.801Z,0
2016-06-24T01:51:21.770Z,0
2016-06-24T01:52:22.407Z,0
2016-06-24T01:53:21.738Z,0
2016-06-24T01:54:21.090Z,0
2016-06-24T01:55:22.363Z,0
2016-06-24T01:56:22.334Z,0
2016-06-24T01:57:22.347Z,0
2016-06-24T01:58:22.303Z,0
2016-06-24T01:59:21.681Z,0
2016-06-24T02:00:21.022Z,0
2016-06-24T02:01:22.287Z,0
2016-06-24T02:02:21.607Z,0
2016-06-24T02:03:22.273Z,0
2016-06-24T02:04:20.950Z,0
2016-06-24T02:05:21.581Z,0
2016-06-24T02:06:20.918Z,0
2016-06-24T02:07:21.536Z,0
2016-06-24T02:08:21.523Z,0
2016-06-24T02:09:20.882Z,0
2016-06-24T02:10:21.521Z,0
2016-06-24T02:11:20.864Z,0
2016-06-24T02:12:21.457Z,0
2016-06-24T02:13:22.106Z,0
2016-06-24T02:14:22.105Z,0
2016-06-24T02:15:21.447Z,0
2016-06-24T02:16:21.442Z,0
2016-06-24T02:17:20.119Z,0
2016-06-24T02:18:20.759Z,0
2016-06-24T02:19:20.744Z,0
2016-06-24T02:20:21.380Z,0
2016-06-24T02:21:21.966Z,0
2016-06-24T02:22:20.038Z,0
2016-06-24T02:23:21.944Z,0
2016-06-24T02:24:20.642Z,0
2016-06-24T02:25:20.644Z,0
2016-06-24T02:26:21.902Z,0
2016-06-24T02:27:20.612Z,0
2016-06-24T02:28:19.977Z,0
2016-06-24T02:29:21.225Z,0
2016-06-24T02:30:20.569Z,0
2016-06-24T02:31:20.547Z,0
2016-06-24T02:32:21.194Z,0
2016-06-24T02:33:20.541Z,0
2016-06-24T02:34:21.157Z,0
2016-06-24T02:35:21.141Z,0
2016-06-24T02:36:20.482Z,0
2016-06-24T02:37:21.103Z,0
2016-06-24T02:38:21.085Z,0
2016-06-24T02:39:21.102Z,0
2016-06-24T02:40:19.781Z,0
2016-06-24T02:41:19.772Z,0
2016-06-24T02:42:21.651Z,0
2016-06-24T02:43:21.667Z,0
2016-06-24T02:44:20.998Z,0
2016-06-24T02:45:20.337Z,0
2016-06-24T02:46:19.686Z,0
2016-06-24T02:47:21.595Z,0
2016-06-24T02:48:21.587Z,0
2016-06-24T02:49:20.931Z,0
2016-06-24T02:50:20.269Z,0
2016-06-24T02:51:20.905Z,0
2016-06-24T02:52:21.537Z,0
2016-06-24T02:53:20.228Z,0
2016-06-24T02:54:20.853Z,0
2016-06-24T02:55:20.203Z,0
2016-06-24T02:56:20.852Z,0
2016-06-24T02:57:20.849Z,0
2016-06-24T02:58:21.463Z,0
2016-06-24T02:59:20.167Z,0
2016-06-24T03:00:20.121Z,0
2016-06-24T03:01:20.748Z,0
2016-06-24T03:02:20.747Z,0
2016-06-24T03:03:20.759Z,0
2016-06-24T03:04:19.443Z,0
2016-06-24T03:05:20.049Z,0
2016-06-24T03:06:20.665Z,0
2016-06-24T03:07:20.672Z,0
2016-06-24T03:08:20.010Z,0
2016-06-24T03:09:21.281Z,0
2016-06-24T03:10:19.988Z,0
2016-06-24T03:11:21.254Z,0
2016-06-24T03:12:21.212Z,0
2016-06-24T03:13:20.580Z,0
2016-06-24T03:14:20.555Z,0
2016-06-24T03:15:21.189Z,0
2016-06-24T03:16:20.524Z,0
2016-06-24T03:17:19.867Z,0
2016-06-24T03:18:19.246Z,0
2016-06-24T03:19:21.126Z,0
2016-06-24T03:20:20.465Z,0
2016-06-24T03:21:21.110Z,0
2016-06-24T03:22:21.085Z,0
2016-06-24T03:23:20.438Z,0
2016-06-24T03:24:20.404Z,0
2016-06-24T03:25:21.042Z,0
2016-06-24T03:26:21.022Z,0
2016-06-24T03:27:21.010Z,0
2016-06-24T03:28:20.370Z,0
2016-06-24T03:29:19.732Z,0
2016-06-24T03:30:20.985Z,0
2016-06-24T03:31:20.319Z,0
2016-06-24T03:32:19.657Z,0
2016-06-24T03:33:20.917Z,0
2016-06-24T03:34:20.921Z,0
2016-06-24T03:35:20.888Z,0
2016-06-24T03:36:20.876Z,0
2016-06-24T03:37:19.576Z,0
2016-06-24T03:38:20.217Z,0
2016-06-24T03:39:20.827Z,0
2016-06-24T03:40:20.835Z,0
2016-06-24T03:41:19.535Z,0
2016-06-24T03:42:20.150Z,0
2016-06-24T03:43:20.130Z,0
2016-06-24T03:44:20.749Z,0
2016-06-24T03:45:20.103Z,0
2016-06-24T03:46:20.095Z,0
2016-06-24T03:47:18.792Z,0
2016-06-24T03:48:20.702Z,0
2016-06-24T03:49:20.056Z,0
2016-06-24T03:50:20.679Z,0
2016-06-24T03:51:20.038Z,0
2016-06-24T03:52:20.632Z,0
2016-06-24T03:53:19.987Z,0
2016-06-24T03:54:19.980Z,0
2016-06-24T03:55:20.606Z,0
2016-06-24T03:56:19.948Z,0
2016-06-24T03:57:20.565Z,0
2016-06-24T03:58:19.938Z,0
2016-06-24T03:59:19.871Z,0
2016-06-24T04:00:20.547Z,0
2016-06-24T04:01:19.897Z,0
2016-06-24T04:02:20.536Z,0
2016-06-24T04:03:19.213Z,0
2016-06-24T04:04:19.187Z,0
2016-06-24T04:05:20.466Z,0
2016-06-24T04:06:20.430Z,0
2016-06-24T04:07:19.782Z,0
2016-06-24T04:08:19.775Z,0
2016-06-24T04:09:19.734Z,0
2016-06-24T04:10:20.400Z,0
2016-06-24T04:11:18.447Z,0
2016-06-24T04:12:19.703Z,0
2016-06-24T04:13:19.711Z,0
2016-06-24T04:14:19.681Z,0
2016-06-24T04:15:19.663Z,0
2016-06-24T04:16:19.657Z,0
2016-06-24T04:17:20.273Z,0
2016-06-24T04:18:18.350Z,0
2016-06-24T04:19:20.265Z,0
2016-06-24T04:20:19.614Z,0
2016-06-24T04:21:20.205Z,0
2016-06-24T04:22:19.580Z,0
2016-06-24T04:23:18.916Z,0
2016-06-24T04:24:18.896Z,0
2016-06-24T04:25:18.893Z,0
2016-06-24T04:26:19.514Z,0
2016-06-24T04:27:18.871Z,0
2016-06-24T04:28:19.478Z,0
2016-06-24T04:29:20.103Z,0
2016-06-24T04:30:19.446Z,0
2016-06-24T04:31:20.070Z,0
2016-06-24T04:32:20.043Z,0
2016-06-24T04:33:19.398Z,0
2016-06-24T04:34:19.386Z,0
2016-06-24T04:35:18.751Z,0
2016-06-24T04:36:19.385Z,0
2016-06-24T04:37:20.020Z,0
2016-06-24T04:38:19.327Z,0
2016-06-24T04:39:18.673Z,0
2016-06-24T04:40:19.282Z,0
2016-06-24T04:41:19.277Z,0
2016-06-24T04:42:19.257Z,0
2016-06-24T04:43:17.963Z,0
2016-06-24T04:44:19.891Z,0
2016-06-24T04:45:19.865Z,0
2016-06-24T04:46:19.218Z,0
2016-06-24T04:47:19.189Z,0
2016-06-24T04:48:19.830Z,0
2016-06-24T04:49:18.559Z,0
2016-06-24T04:50:18.506Z,0
2016-06-24T04:51:19.786Z,0
2016-06-24T04:52:19.753Z,0
2016-06-24T04:53:19.130Z,0
2016-06-24T04:54:19.736Z,0
2016-06-24T04:55:19.717Z,0
2016-06-24T04:56:19.069Z,0
2016-06-24T04:57:17.780Z,0
2016-06-24T04:58:19.041Z,0
2016-06-24T04:59:19.666Z,0
2016-06-24T05:00:19.041Z,0
2016-06-24T05:01:18.992Z,0
2016-06-24T05:02:19.610Z,0
2016-06-24T05:03:18.987Z,0
2016-06-24T05:04:18.968Z,0
2016-06-24T05:05:18.306Z,0
2016-06-24T05:06:18.266Z,0
2016-06-24T05:07:18.897Z,0
2016-06-24T05:08:19.518Z,0
2016-06-24T05:09:18.894Z,0
2016-06-24T05:10:18.235Z,0
2016-06-24T05:11:18.847Z,0
2016-06-24T05:12:18.183Z,0
2016-06-24T05:13:18.809Z,0
2016-06-24T05:14:19.420Z,0
2016-06-24T05:15:17.502Z,0
2016-06-24T05:16:18.767Z,0
2016-06-24T05:17:18.760Z,5
2016-06-24T05:18:19.399Z,5
2016-06-24T05:19:18.751Z,5
2016-06-24T05:20:18.694Z,5
2016-06-24T05:21:18.687Z,5
2016-06-24T05:22:19.309Z,5
2016-06-24T05:23:18.667Z,5
2016-06-24T05:24:18.016Z,5
2016-06-24T05:25:18.653Z,5
2016-06-24T05:26:18.626Z,5
2016-06-24T05:27:17.326Z,10
2016-06-24T05:28:18.602Z,10
2016-06-24T05:29:18.596Z,10
2016-06-24T05:30:18.557Z,10
2016-06-24T05:31:17.262Z,10
2016-06-24T05:32:17.891Z,10
2016-06-24T05:33:19.150Z,10
2016-06-24T05:34:16.585Z,10
2016-06-24T05:35:18.495Z,10
2016-06-24T05:36:17.869Z,15
2016-06-24T05:37:19.100Z,15
2016-06-24T05:38:18.454Z,15
2016-06-24T05:39:17.787Z,15
2016-06-24T05:40:18.407Z,15
2016-06-24T05:41:17.772Z,15
2016-06-24T05:42:19.043Z,15
2016-06-24T05:43:19.041Z,15
2016-06-24T05:44:18.352Z,20
2016-06-24T05:45:18.350Z,20
2016-06-24T05:46:18.993Z,20
2016-06-24T05:47:18.954Z,20
2016-06-24T05:48:17.687Z,20
2016-06-24T05:49:18.308Z,20
2016-06-24T05:50:18.941Z,20
2016-06-24T05:51:18.254Z,20
2016-06-24T05:52:17.613Z,20
2016-06-24T05:53:17.585Z,20
2016-06-24T05:54:18.859Z,20
2016-06-24T05:55:18.214Z,25
2016-06-24T05:56:18.809Z,25
2016-06-24T05:57:17.536Z,25
2016-06-24T05:58:18.145Z,25
2016-06-24T05:59:17.490Z,25
2016-06-24T06:00:18.794Z,25
2016-06-24T06:01:18.115Z,25
2016-06-24T06:02:17.468Z,25
2016-06-24T06:03:18.067Z,25
2016-06-24T06:04:18.083Z,25
2016-06-24T06:05:18.682Z,25
2016-06-24T06:06:18.060Z,30
2016-06-24T06:07:18.017Z,30
2016-06-24T06:08:17.365Z,30
2016-06-24T06:09:17.372Z,30
2016-06-24T06:10:18.639Z,30
2016-06-24T06:11:17.953Z,30
2016-06-24T06:12:18.621Z,30
2016-06-24T06:13:17.946Z,30
2016-06-24T06:14:17.287Z,30
2016-06-24T06:15:16.607Z,30
2016-06-24T06:16:17.899Z,30
2016-06-24T06:17:17.289Z,30
2016-06-24T06:18:18.489Z,35
2016-06-24T06:19:17.871Z,35
2016-06-24T06:20:18.607Z,35
2016-06-24T06:21:18.458Z,35
2016-06-24T06:22:17.790Z,35
2016-06-24T06:23:17.815Z,35
2016-06-24T06:24:17.827Z,35
2016-06-24T06:25:17.769Z,35
2016-06-24T06:26:17.774Z,35
2016-06-24T06:27:18.410Z,35
2016-06-24T06:28:17.721Z,35
2016-06-24T06:29:17.091Z,35
2016-06-24T06:30:18.325Z,35
2016-06-24T06:31:18.318Z,35
2016-06-24T06:32:17.023Z,35
2016-06-24T06:33:18.286Z,40
2016-06-24T06:34:17.622Z,40
2016-06-24T06:35:17.002Z,40
2016-06-24T06:36:17.080Z,40
2016-06-24T06:37:18.224Z,40
2016-06-24T06:38:17.578Z,40
2016-06-24T06:39:18.210Z,40
2016-06-24T06:40:16.909Z,40
2016-06-24T06:41:17.522Z,40
2016-06-24T06:42:17.296Z,40
2016-06-24T06:43:16.854Z,40
2016-06-24T06:44:17.692Z,40
2016-06-24T06:45:17.493Z,40
2016-06-24T06:46:18.109Z,40
2016-06-24T06:47:17.437Z,40
2016-06-24T06:48:18.063Z,45
2016-06-24T06:49:17.431Z,45
2016-06-24T06:50:17.409Z,45
2016-06-24T06:51:17.371Z,45
2016-06-24T06:52:18.009Z,45
2016-06-24T06:53:16.072Z,45
2016-06-24T06:54:17.336Z,45
2016-06-24T06:55:17.973Z,45
2016-06-24T06:56:17.946Z,45
2016-06-24T06:57:16.648Z,45
2016-06-24T06:58:17.294Z,45
2016-06-24T06:59:16.646Z,45
2016-06-24T07:00:17.258Z,50
2016-06-24T07:01:17.877Z,50
2016-06-24T07:02:17.871Z,50
2016-06-24T07:03:17.222Z,50
2016-06-24T07:04:17.187Z,50
2016-06-24T07:05:17.176Z,50
2016-06-24T07:06:17.845Z,50
2016-06-24T07:07:17.146Z,50
2016-06-24T07:08:17.773Z,55
2016-06-24T07:09:17.782Z,55
2016-06-24T07:10:17.743Z,55
2016-06-24T07:11:17.783Z,55
2016-06-24T07:12:17.715Z,60
2016-06-24T07:13:17.075Z,55
2016-06-24T07:14:17.691Z,60
2016-06-24T07:15:17.046Z,55
2016-06-24T07:16:17.021Z,55
2016-06-24T07:17:17.708Z,55
2016-06-24T07:18:16.367Z,60
2016-06-24T07:19:16.982Z,60
2016-06-24T07:20:17.000Z,60
2016-06-24T07:21:16.970Z,60
2016-06-24T07:22:17.583Z,60
2016-06-24T07:23:17.574Z,60
2016-06-24T07:24:16.280Z,60
2016-06-24T07:25:17.526Z,60
2016-06-24T07:27:16.908Z,55
2016-06-24T07:28:16.207Z,55
2016-06-24T07:29:16.877Z,50
2016-06-24T07:30:16.846Z,55
2016-06-24T07:31:17.451Z,60
2016-06-24T07:32:16.195Z,60
2016-06-24T07:33:16.788Z,60
2016-06-24T07:34:16.782Z,60
2016-06-24T07:35:17.399Z,60
2016-06-24T07:36:16.743Z,65
2016-06-24T07:37:16.081Z,55
2016-06-24T07:38:15.427Z,60
2016-06-24T07:39:17.361Z,55
2016-06-24T07:40:16.695Z,60
2016-06-24T07:41:16.040Z,65
2016-06-24T07:42:16.623Z,65
2016-06-24T07:43:17.301Z,65
2016-06-24T07:44:16.641Z,65
2016-06-24T07:45:15.989Z,70
2016-06-24T07:46:16.597Z,70
2016-06-24T07:47:16.628Z,75
2016-06-24T07:48:15.948Z,80
2016-06-24T07:49:16.594Z,80
2016-06-24T07:50:16.564Z,75
2016-06-24T07:51:16.582Z,100
2016-06-24T07:52:15.862Z,95
2016-06-24T07:53:15.876Z,70
2016-06-24T07:54:16.480Z,55
2016-06-24T07:55:17.130Z,65
2016-06-24T07:56:15.819Z,55
2016-06-24T07:57:17.091Z,70
2016-06-24T07:58:15.819Z,70
2016-06-24T07:59:17.060Z,70
2016-06-24T08:00:15.757Z,70
2016-06-24T08:01:15.762Z,70
2016-06-24T08:02:17.009Z,70
2016-06-24T08:03:16.353Z,70
2016-06-24T08:04:16.345Z,70
2016-06-24T08:05:15.832Z,70
2016-06-24T08:06:16.312Z,70
2016-06-24T08:07:15.651Z,70
2016-06-24T08:08:16.921Z,70
2016-06-24T08:09:14.971Z,75
2016-06-24T08:10:16.903Z,75
2016-06-24T08:11:16.257Z,75
2016-06-24T08:12:16.886Z,75
2016-06-24T08:13:16.231Z,75
2016-06-24T08:14:16.828Z,75
2016-06-24T08:15:16.829Z,75
2016-06-24T08:16:16.826Z,75
2016-06-24T08:17:16.145Z,80
2016-06-24T08:18:16.799Z,80
2016-06-24T08:19:16.792Z,70
2016-06-24T08:20:15.489Z,65
2016-06-24T08:21:14.162Z,55
2016-06-24T08:22:16.096Z,65
2016-06-24T08:23:16.705Z,80
2016-06-24T08:24:16.681Z,80
2016-06-24T08:25:16.075Z,80
2016-06-24T08:26:16.040Z,80
2016-06-24T08:27:15.383Z,80
2016-06-24T08:28:16.660Z,80
2016-06-24T08:29:15.968Z,80
2016-06-24T08:30:16.623Z,80
2016-06-24T08:31:15.971Z,85
2016-06-24T08:32:15.344Z,85
2016-06-24T08:33:16.587Z,85
2016-06-24T08:34:16.589Z,85
2016-06-24T08:35:16.563Z,85
2016-06-24T08:36:15.270Z,85
2016-06-24T08:37:15.868Z,80
2016-06-24T08:38:14.611Z,85
2016-06-24T08:39:15.202Z,75
2016-06-24T08:40:15.830Z,80
2016-06-24T08:41:15.825Z,85
2016-06-24T08:42:15.158Z,85
2016-06-24T08:43:16.489Z,85
2016-06-24T08:44:15.773Z,85
2016-06-24T08:45:16.427Z,85
2016-06-24T08:46:15.781Z,85
2016-06-24T08:47:15.109Z,85
2016-06-24T08:48:15.104Z,85
2016-06-24T08:49:16.639Z,85
2016-06-24T08:50:16.347Z,85
2016-06-24T08:51:15.699Z,90
2016-06-24T08:52:15.688Z,90
2016-06-24T08:53:16.311Z,90
2016-06-24T08:54:14.997Z,90
2016-06-24T08:55:15.019Z,90
2016-06-24T08:56:14.993Z,90
2016-06-24T08:57:15.611Z,90
2016-06-24T08:58:16.223Z,90
2016-06-24T08:59:16.228Z,90
2016-06-24T09:00:16.301Z,90
2016-06-24T09:01:16.172Z,90
2016-06-24T09:02:14.907Z,90
2016-06-24T09:03:15.526Z,95
2016-06-24T09:04:15.519Z,90
2016-06-24T09:05:15.490Z,90
2016-06-24T09:06:15.504Z,90
2016-06-24T09:07:16.106Z,90
2016-06-24T09:08:14.815Z,90
2016-06-24T09:09:16.108Z,90
2016-06-24T09:10:15.430Z,90
2016-06-24T09:11:16.054Z,90
2016-06-24T09:12:15.436Z,90
2016-06-24T09:13:16.030Z,90
2016-06-24T09:14:16.029Z,90
2016-06-24T09:15:15.355Z,90
2016-06-24T09:16:30.152Z,95
2016-06-24T09:17:15.974Z,95
2016-06-24T09:18:15.359Z,95
2016-06-24T09:19:14.659Z,95
2016-06-24T09:20:15.307Z,95
2016-06-24T09:21:15.930Z,95
2016-06-24T09:22:15.266Z,95
2016-06-24T09:23:15.262Z,95
2016-06-24T09:24:15.886Z,95
2016-06-24T09:25:14.594Z,95
2016-06-24T09:26:15.194Z,95
2016-06-24T09:27:15.201Z,95
2016-06-24T09:28:15.328Z,95
2016-06-24T09:29:15.839Z,95
2016-06-24T09:30:15.153Z,95
2016-06-24T09:31:14.502Z,100
2016-06-24T09:32:15.115Z,100
2016-06-24T09:33:15.765Z,100
2016-06-24T09:34:15.112Z,100
2016-06-24T09:35:15.118Z,100
2016-06-24T09:36:15.730Z,100
2016-06-24T09:37:15.707Z,100
2016-06-24T09:38:15.053Z,100
2016-06-24T09:39:15.193Z,105
2016-06-24T09:40:15.020Z,105
2016-06-24T09:41:13.729Z,105
2016-06-24T09:42:14.995Z,105
2016-06-24T09:43:14.976Z,105
2016-06-24T09:44:15.603Z,105
2016-06-24T09:45:15.600Z,105
2016-06-24T09:46:14.309Z,105
2016-06-24T09:47:15.776Z,105
2016-06-24T09:48:15.227Z,105
2016-06-24T09:49:14.919Z,105
2016-06-24T09:50:14.280Z,110
2016-06-24T09:51:14.903Z,110
2016-06-24T09:52:14.225Z,110
2016-06-24T09:53:13.586Z,110
2016-06-24T09:54:15.479Z,110
2016-06-24T09:55:14.206Z,110
2016-06-24T09:56:15.454Z,115
2016-06-24T09:57:15.706Z,115
2016-06-24T09:58:15.410Z,115
2016-06-24T09:59:15.423Z,115
2016-06-24T10:00:12.854Z,115
2016-06-24T10:01:14.132Z,115
2016-06-24T10:02:14.738Z,120
2016-06-24T10:03:15.390Z,125
2016-06-24T10:04:15.130Z,120
2016-06-24T10:05:14.078Z,115
2016-06-24T10:06:12.831Z,125
2016-06-24T10:07:15.346Z,125
2016-06-24T10:08:15.298Z,125
2016-06-24T10:09:14.013Z,130
2016-06-24T10:10:14.643Z,130
2016-06-24T10:11:15.245Z,140
2016-06-24T10:12:13.979Z,135
2016-06-24T10:13:13.960Z,130
2016-06-24T10:14:15.225Z,135
2016-06-24T10:15:15.227Z,145
2016-06-24T10:16:14.555Z,155
2016-06-24T10:17:14.553Z,155
2016-06-24T10:18:15.170Z,150
2016-06-24T10:19:14.519Z,140
2016-06-24T10:20:14.498Z,135
2016-06-24T10:21:13.878Z,135
2016-06-24T10:22:14.500Z,140
2016-06-24T10:23:15.189Z,145
2016-06-24T10:24:15.090Z,145
2016-06-24T10:25:13.868Z,140
2016-06-24T10:26:14.479Z,145
2016-06-24T10:27:14.421Z,150
2016-06-24T10:28:14.397Z,150
2016-06-24T10:29:14.384Z,150
2016-06-24T10:30:14.378Z,155
2016-06-24T10:31:14.988Z,160
2016-06-24T10:32:14.351Z,155
2016-06-24T10:33:14.975Z,160
2016-06-24T10:34:13.055Z,160
2016-06-24T10:35:14.987Z,160
2016-06-24T10:36:14.986Z,170
2016-06-24T10:37:13.766Z,165
2016-06-24T10:38:15.511Z,165
2016-06-24T10:39:14.290Z,165
2016-06-24T10:40:14.914Z,165
2016-06-24T10:41:14.901Z,160
2016-06-24T10:42:14.266Z,165
2016-06-24T10:43:14.235Z,165
2016-06-24T10:44:14.198Z,170
2016-06-24T10:45:14.211Z,175
2016-06-24T10:46:14.818Z,170
2016-06-24T10:47:14.839Z,180
2016-06-24T10:48:13.516Z,180
2016-06-24T10:49:14.150Z,175
2016-06-24T10:50:14.792Z,170
2016-06-24T10:51:14.121Z,170
2016-06-24T10:52:14.142Z,170
2016-06-24T10:53:13.438Z,170
2016-06-24T10:54:14.074Z,170
2016-06-24T10:55:13.459Z,170
2016-06-24T10:56:14.134Z,175
2016-06-24T10:57:13.404Z,175
2016-06-24T10:58:14.682Z,175
2016-06-24T10:59:14.677Z,170
2016-06-24T11:00:14.662Z,170
2016-06-24T11:01:13.984Z,175
2016-06-24T11:02:13.967Z,175
2016-06-24T11:03:14.379Z,175
2016-06-24T11:04:15.086Z,180
2016-06-24T11:05:14.668Z,180
2016-06-24T11:06:13.496Z,185
2016-06-24T11:07:15.153Z,185
2016-06-24T11:08:13.931Z,185
2016-06-24T11:09:13.916Z,210
2016-06-24T11:10:12.602Z,220
2016-06-24T11:11:13.881Z,180
2016-06-24T11:12:12.600Z,175
2016-06-24T11:13:14.551Z,175
2016-06-24T11:14:13.853Z,170
2016-06-24T11:15:13.837Z,170
2016-06-24T11:16:13.852Z,180
2016-06-24T11:17:14.757Z,175
2016-06-24T11:18:13.229Z,180
2016-06-24T11:19:14.407Z,155
2016-06-24T11:20:13.154Z,170
2016-06-24T11:21:13.142Z,170
2016-06-24T11:22:13.092Z,175
2016-06-24T11:23:14.395Z,170
2016-06-24T11:24:13.098Z,170
2016-06-24T11:25:13.706Z,170
2016-06-24T11:26:13.742Z,170
2016-06-24T11:27:14.332Z,175
2016-06-24T11:28:13.649Z,175
2016-06-24T11:29:14.278Z,175
2016-06-24T11:30:14.258Z,175
2016-06-24T11:31:14.251Z,175
2016-06-24T11:32:12.995Z,175
2016-06-24T11:33:14.257Z,175
2016-06-24T11:34:13.587Z,300
2016-06-24T11:35:12.933Z,620
2016-06-24T11:36:13.549Z,550
2016-06-24T11:37:12.916Z,415
2016-06-24T11:38:13.557Z,285
2016-06-24T11:39:13.278Z,190
2016-06-24T11:40:14.161Z,310
2016-06-24T11:41:14.215Z,1130
2016-06-24T11:42:14.667Z,2115
2016-06-24T11:43:14.306Z,2395
2016-06-24T11:44:14.065Z,2365
2016-06-24T11:45:14.176Z,2270
2016-06-24T11:46:14.278Z,2245
2016-06-24T11:47:13.984Z,2335
2016-06-24T11:48:13.479Z,2395
2016-06-24T11:49:13.479Z,2420
2016-06-24T11:50:13.439Z,2290
2016-06-24T11:51:13.473Z,2185
2016-06-24T11:52:14.116Z,2195
2016-06-24T11:53:12.812Z,2365
2016-06-24T11:54:12.841Z,2350
2016-06-24T11:55:13.505Z,2365
2016-06-24T11:56:12.821Z,2345
2016-06-24T11:57:13.523Z,2290
2016-06-24T11:58:13.487Z,2350
2016-06-24T11:59:13.461Z,2425
2016-06-24T12:00:12.236Z,2335
2016-06-24T12:01:14.723Z,2380
2016-06-24T12:02:13.467Z,2450
2016-06-24T12:03:14.149Z,2450
2016-06-24T12:04:14.090Z,2385
2016-06-24T12:05:14.119Z,2310
2016-06-24T12:06:14.149Z,2360
2016-06-24T12:07:14.229Z,2395
2016-06-24T12:08:14.246Z,2360
2016-06-24T12:09:13.659Z,2310
2016-06-24T12:10:13.656Z,2170
2016-06-24T12:11:13.687Z,2050
2016-06-24T12:12:12.396Z,2050
2016-06-24T12:13:14.411Z,2220
2016-06-24T12:14:13.689Z,2430
2016-06-24T12:15:12.995Z,2380
2016-06-24T12:16:14.350Z,2280
2016-06-24T12:17:13.598Z,2200
2016-06-24T12:18:13.531Z,2240
2016-06-24T12:19:13.448Z,1900
2016-06-24T12:20:14.084Z,1300
2016-06-24T12:21:13.465Z,780
2016-06-24T12:22:14.095Z,640
2016-06-24T12:23:14.088Z,670
2016-06-24T12:24:12.729Z,635
2016-06-24T12:25:14.058Z,565
2016-06-24T12:26:14.030Z,525
2016-06-24T12:27:14.042Z,500
2016-06-24T12:28:13.386Z,500
2016-06-24T12:29:13.525Z,480
2016-06-24T12:30:13.453Z,475
2016-06-24T12:31:12.864Z,475
2016-06-24T12:32:13.501Z,480
2016-06-24T12:33:12.907Z,460
2016-06-24T12:34:13.559Z,455
2016-06-24T12:35:12.912Z,450
2016-06-24T12:36:14.209Z,455
2016-06-24T12:37:13.603Z,455
2016-06-24T12:38:13.520Z,455
2016-06-24T12:39:14.071Z,450
2016-06-24T12:40:13.435Z,450
2016-06-24T12:41:14.101Z,455
2016-06-24T12:42:12.767Z,450
2016-06-24T12:43:12.800Z,450
2016-06-24T12:44:13.447Z,450
2016-06-24T12:45:12.770Z,455
2016-06-24T12:46:14.101Z,455
2016-06-24T12:47:12.755Z,460
2016-06-24T12:48:12.806Z,455
2016-06-24T12:49:14.066Z,465
2016-06-24T12:50:13.477Z,465
2016-06-24T12:51:14.118Z,470
2016-06-24T12:52:14.084Z,475
2016-06-24T12:53:13.554Z,480
2016-06-24T12:54:14.271Z,485
2016-06-24T12:55:13.452Z,490
2016-06-24T12:56:12.814Z,490
2016-06-24T12:57:12.854Z,500
2016-06-24T12:58:12.362Z,505
2016-06-24T12:59:13.791Z,515
2016-06-24T13:00:12.961Z,520
2016-06-24T13:01:13.658Z,525
2016-06-24T13:02:14.314Z,530
2016-06-24T13:03:14.433Z,535
2016-06-24T13:04:12.375Z,550
2016-06-24T13:05:13.797Z,565
2016-06-24T13:06:14.491Z,580
2016-06-24T13:07:14.422Z,620
2016-06-24T13:08:13.794Z,705
2016-06-24T13:09:13.750Z,1005
2016-06-24T13:10:13.761Z,1580
2016-06-24T13:11:14.462Z,2235
2016-06-24T13:12:13.762Z,2510
2016-06-24T13:13:14.416Z,2320
2016-06-24T13:14:14.433Z,2310
2016-06-24T13:15:13.724Z,2330
2016-06-24T13:16:14.511Z,2290
2016-06-24T13:17:13.845Z,2480
2016-06-24T13:18:14.502Z,2260
2016-06-24T13:19:13.819Z,2230
2016-06-24T13:20:13.863Z,2460
2016-06-24T13:21:13.148Z,2490
2016-06-24T13:22:13.149Z,2400
2016-06-24T13:23:13.834Z,2540
2016-06-24T13:24:14.507Z,2535
2016-06-24T13:25:14.038Z,2465
2016-06-24T13:26:12.691Z,2370
2016-06-24T13:27:13.987Z,2425
2016-06-24T13:28:14.006Z,2610
2016-06-24T13:29:13.337Z,2560
2016-06-24T13:30:13.990Z,2360
2016-06-24T13:31:13.374Z,2435
2016-06-24T13:32:12.947Z,2355
2016-06-24T13:33:13.974Z,2200
2016-06-24T13:34:13.335Z,2305
2016-06-24T13:35:13.347Z,2445
2016-06-24T13:36:13.976Z,2410
2016-06-24T13:37:13.359Z,2435
2016-06-24T13:38:12.722Z,2380
2016-06-24T13:39:13.350Z,2425
2016-06-24T13:40:12.714Z,2515
2016-06-24T13:41:12.708Z,2500
2016-06-24T13:42:13.425Z,2445
2016-06-24T13:43:14.043Z,2455
2016-06-24T13:44:13.402Z,2545
2016-06-24T13:45:12.742Z,2470
2016-06-24T13:46:13.360Z,2505
2016-06-24T13:47:13.558Z,2380
2016-06-24T13:48:13.975Z,2230
2016-06-24T13:49:13.339Z,2395
2016-06-24T13:50:14.257Z,2405
2016-06-24T13:51:13.381Z,2405
2016-06-24T13:52:14.035Z,2410
2016-06-24T13:53:13.347Z,2470
2016-06-24T13:54:12.697Z,2475
2016-06-24T13:55:14.031Z,2605
2016-06-24T13:56:13.985Z,2530
2016-06-24T13:57:14.014Z,2500
2016-06-24T13:58:13.977Z,2490
2016-06-24T13:59:13.984Z,2430
2016-06-24T14:00:13.981Z,2435
2016-06-24T14:01:14.538Z,2380
2016-06-24T14:02:14.125Z,2175
2016-06-24T14:03:14.366Z,2250
2016-06-24T14:04:14.042Z,2405
2016-06-24T14:05:13.340Z,2325
2016-06-24T14:06:13.339Z,2360
2016-06-24T14:07:13.348Z,2230
2016-06-24T14:08:13.329Z,2280
2016-06-24T14:09:14.009Z,2360
2016-06-24T14:10:13.965Z,2255
2016-06-24T14:11:14.014Z,2260
2016-06-24T14:12:13.384Z,2375
2016-06-24T14:13:13.362Z,2370
2016-06-24T14:14:13.383Z,2190